Time;durP1;ratioP1;P1;durP2;ratioP2;P2;SDS_P1;SDS_P2;PMS_P1;PMS_P2;Temp;Humidity;BMP_temperature;BMP_pressure;BME280_temperature;BME280_humidity;BME280_pressure;Samples;Min_cycle;Max_cycle;Signal;HPM_P1;HPM_P2
2021/01/19 00:00:14;;;;;;;;;;;22.50;24.20;;;;;;486725;244;1304;-68
2021/01/19 00:02:15;;;;;;;;;;;22.50;24.20;;;;;;486605;244;1131;-69
2021/01/19 00:04:16;;;;;;;;;;;22.50;24.20;;;;;;486625;244;1162;-69
2021/01/19 00:06:18;;;;;;;;;;;22.50;24.20;;;;;;486586;244;1244;-68
2021/01/19 00:08:19;;;;;;;;;;;22.50;24.20;;;;;;486687;244;1190;-68
2021/01/19 00:10:20;;;;;;;;;;;22.50;24.20;;;;;;486679;244;2179;-69
2021/01/19 00:12:21;;;;;;;;;;;22.50;24.10;;;;;;486727;244;1249;-69
2021/01/19 00:14:23;;;;;;;;;;;22.50;24.20;;;;;;486738;244;1121;-69
2021/01/19 00:16:24;;;;;;;;;;;22.50;24.20;;;;;;486733;244;1204;-69
2021/01/19 00:18:25;;;;;;;;;;;22.50;24.20;;;;;;486727;244;1279;-68
2021/01/19 00:20:27;;;;;;;;;;;22.50;24.10;;;;;;486792;244;1230;-68
2021/01/19 00:22:29;;;;;;;;;;;22.50;24.10;;;;;;486699;244;1174;-69
2021/01/19 00:24:29;;;;;;;;;;;22.50;24.10;;;;;;486722;245;1520;-69
2021/01/19 00:26:30;;;;;;;;;;;22.50;24.10;;;;;;486716;244;1238;-68
2021/01/19 00:28:32;;;;;;;;;;;22.50;24.10;;;;;;486649;244;1243;-69
2021/01/19 00:30:33;;;;;;;;;;;22.50;24.10;;;;;;486667;244;2195;-69
2021/01/19 00:32:34;;;;;;;;;;;22.50;24.10;;;;;;486654;244;1206;-69
2021/01/19 00:34:36;;;;;;;;;;;22.50;24.10;;;;;;486755;244;1195;-70
2021/01/19 00:36:37;;;;;;;;;;;22.50;24.10;;;;;;486721;244;1302;-69
2021/01/19 00:38:38;;;;;;;;;;;22.50;24.10;;;;;;486611;244;1266;-69
2021/01/19 00:40:39;;;;;;;;;;;22.50;24.10;;;;;;486748;244;1193;-69
2021/01/19 00:42:41;;;;;;;;;;;22.50;24.10;;;;;;486680;243;1255;-68
2021/01/19 00:44:42;;;;;;;;;;;22.50;24.00;;;;;;486715;244;1127;-69
2021/01/19 00:46:43;;;;;;;;;;;22.50;24.10;;;;;;486632;244;1388;-69
2021/01/19 00:48:45;;;;;;;;;;;22.50;24.00;;;;;;486722;244;1272;-69
2021/01/19 00:50:47;;;;;;;;;;;22.50;24.10;;;;;;486688;244;2183;-68
2021/01/19 00:52:49;;;;;;;;;;;22.50;24.00;;;;;;486620;244;1155;-69
2021/01/19 00:54:50;;;;;;;;;;;22.50;24.00;;;;;;486709;244;1224;-69
2021/01/19 00:56:51;;;;;;;;;;;22.50;24.00;;;;;;486731;244;1256;-68
2021/01/19 00:58:52;;;;;;;;;;;22.50;24.00;;;;;;486694;244;1282;-68
2021/01/19 01:00:54;;;;;;;;;;;22.50;24.00;;;;;;486709;244;1213;-69
2021/01/19 01:02:55;;;;;;;;;;;22.50;24.00;;;;;;486686;244;1355;-69
2021/01/19 01:04:56;;;;;;;;;;;22.50;24.00;;;;;;486752;244;1145;-69
2021/01/19 01:06:58;;;;;;;;;;;22.50;24.00;;;;;;486736;244;1372;-69
2021/01/19 01:08:59;;;;;;;;;;;22.50;23.90;;;;;;486675;244;1210;-69
2021/01/19 01:11:00;;;;;;;;;;;22.50;23.90;;;;;;486718;244;2183;-69
2021/01/19 01:13:01;;;;;;;;;;;22.50;24.00;;;;;;486796;244;1150;-69
2021/01/19 01:15:03;;;;;;;;;;;22.50;23.90;;;;;;486661;244;1174;-69
2021/01/19 01:17:04;;;;;;;;;;;22.50;23.90;;;;;;486695;244;1235;-69
2021/01/19 01:19:05;;;;;;;;;;;22.50;23.90;;;;;;486720;244;1154;-69
2021/01/19 01:21:07;;;;;;;;;;;22.50;23.90;;;;;;486759;244;1277;-69
2021/01/19 01:23:13;;;;;;;;;;;22.50;23.90;;;;;;486592;243;1406;-69
2021/01/19 01:25:09;;;;;;;;;;;22.50;23.90;;;;;;486364;245;1524;-69
2021/01/19 01:27:10;;;;;;;;;;;22.50;23.90;;;;;;486652;244;1224;-69
2021/01/19 01:29:12;;;;;;;;;;;22.50;23.90;;;;;;486714;244;1183;-69
2021/01/19 01:31:13;;;;;;;;;;;22.50;23.90;;;;;;486631;244;2189;-69
2021/01/19 01:33:15;;;;;;;;;;;22.50;23.90;;;;;;486657;244;1130;-70
2021/01/19 01:35:16;;;;;;;;;;;22.50;23.90;;;;;;486671;244;1234;-69
2021/01/19 01:37:17;;;;;;;;;;;22.50;23.90;;;;;;486671;244;1168;-69
2021/01/19 01:39:18;;;;;;;;;;;22.50;23.80;;;;;;486704;244;1220;-69
2021/01/19 01:41:20;;;;;;;;;;;22.50;23.80;;;;;;486695;244;1364;-69
2021/01/19 01:43:21;;;;;;;;;;;22.50;23.80;;;;;;486707;244;1187;-69
2021/01/19 01:45:23;;;;;;;;;;;22.50;23.80;;;;;;486704;244;1247;-69
2021/01/19 01:47:24;;;;;;;;;;;22.50;23.80;;;;;;486697;244;1206;-69
2021/01/19 01:49:25;;;;;;;;;;;22.50;23.90;;;;;;486716;244;2143;-68
2021/01/19 01:51:26;;;;;;;;;;;22.50;23.80;;;;;;486681;244;1302;-69
2021/01/19 01:53:28;;;;;;;;;;;22.50;23.80;;;;;;486706;244;1273;-69
2021/01/19 01:55:29;;;;;;;;;;;22.50;23.80;;;;;;486740;244;1316;-69
2021/01/19 01:57:30;;;;;;;;;;;22.50;23.80;;;;;;486665;244;1128;-69
2021/01/19 01:59:32;;;;;;;;;;;22.50;23.80;;;;;;486704;244;1151;-69
2021/01/19 02:01:33;;;;;;;;;;;22.50;23.80;;;;;;486654;244;1211;-69
2021/01/19 02:03:34;;;;;;;;;;;22.50;23.80;;;;;;486710;244;1299;-69
2021/01/19 02:05:35;;;;;;;;;;;22.50;23.80;;;;;;486698;244;1236;-69
2021/01/19 02:07:37;;;;;;;;;;;22.50;23.80;;;;;;486732;244;1113;-69
2021/01/19 02:09:38;;;;;;;;;;;22.50;23.80;;;;;;486721;244;2206;-69
2021/01/19 02:11:40;;;;;;;;;;;22.50;23.80;;;;;;486688;244;1227;-69
2021/01/19 02:13:41;;;;;;;;;;;22.50;23.80;;;;;;486692;244;1229;-69
2021/01/19 02:15:42;;;;;;;;;;;22.50;23.80;;;;;;486675;244;1368;-68
2021/01/19 02:17:43;;;;;;;;;;;22.50;23.70;;;;;;486696;244;1161;-69
2021/01/19 02:19:45;;;;;;;;;;;22.60;23.80;;;;;;486719;244;1193;-69
2021/01/19 02:21:46;;;;;;;;;;;22.50;23.70;;;;;;486770;244;1332;-69
2021/01/19 02:23:47;;;;;;;;;;;22.50;23.70;;;;;;486668;244;1119;-69
2021/01/19 02:25:49;;;;;;;;;;;22.50;23.70;;;;;;486679;244;1299;-68
2021/01/19 02:27:50;;;;;;;;;;;22.50;23.70;;;;;;486770;244;1207;-69
2021/01/19 02:29:52;;;;;;;;;;;22.50;23.70;;;;;;486597;244;2199;-68
2021/01/19 02:31:53;;;;;;;;;;;22.50;23.70;;;;;;486652;244;1129;-68
2021/01/19 02:33:54;;;;;;;;;;;22.50;23.70;;;;;;486631;244;1235;-69
2021/01/19 02:35:55;;;;;;;;;;;22.50;23.70;;;;;;486580;244;1212;-68
2021/01/19 02:37:57;;;;;;;;;;;22.50;23.70;;;;;;486673;244;1244;-69
2021/01/19 02:39:58;;;;;;;;;;;22.50;23.70;;;;;;486653;244;1263;-69
2021/01/19 02:42:01;;;;;;;;;;;22.50;23.70;;;;;;486665;244;1284;-69
2021/01/19 02:44:02;;;;;;;;;;;22.50;23.70;;;;;;486648;245;1405;-68
2021/01/19 02:46:03;;;;;;;;;;;22.50;23.70;;;;;;486666;244;1220;-68
2021/01/19 02:48:04;;;;;;;;;;;22.50;23.70;;;;;;486646;245;1376;-68
2021/01/19 02:50:05;;;;;;;;;;;22.50;23.70;;;;;;486667;244;2191;-69
2021/01/19 02:52:07;;;;;;;;;;;22.50;23.70;;;;;;486588;244;1243;-69
2021/01/19 02:54:08;;;;;;;;;;;22.50;23.70;;;;;;486640;244;1231;-69
2021/01/19 02:56:09;;;;;;;;;;;22.50;23.70;;;;;;486523;244;1285;-69
2021/01/19 02:58:11;;;;;;;;;;;22.50;23.70;;;;;;486651;244;1237;-68
2021/01/19 03:00:12;;;;;;;;;;;22.50;23.70;;;;;;486672;244;1223;-69
2021/01/19 03:02:13;;;;;;;;;;;22.50;23.70;;;;;;486625;244;1227;-69
2021/01/19 03:04:14;;;;;;;;;;;22.50;23.70;;;;;;486659;244;1197;-69
2021/01/19 03:06:16;;;;;;;;;;;22.50;23.70;;;;;;486619;244;1295;-69
2021/01/19 03:08:17;;;;;;;;;;;22.50;23.70;;;;;;486667;244;1169;-68
2021/01/19 03:10:18;;;;;;;;;;;22.50;23.60;;;;;;486642;244;2206;-68
2021/01/19 03:12:19;;;;;;;;;;;22.50;23.60;;;;;;486489;244;1289;-68
2021/01/19 03:14:21;;;;;;;;;;;22.50;23.60;;;;;;486696;244;1197;-69
2021/01/19 03:16:24;;;;;;;;;;;22.50;23.60;;;;;;486631;244;1378;-69
2021/01/19 03:18:24;;;;;;;;;;;22.50;23.60;;;;;;486640;244;1280;-69
2021/01/19 03:20:27;;;;;;;;;;;22.50;23.60;;;;;;486718;244;1264;-69
2021/01/19 03:22:27;;;;;;;;;;;22.50;23.70;;;;;;486699;245;1319;-69
2021/01/19 03:24:28;;;;;;;;;;;22.50;23.70;;;;;;486639;244;1177;-68
2021/01/19 03:26:30;;;;;;;;;;;22.50;23.70;;;;;;486613;244;1217;-69
2021/01/19 03:28:31;;;;;;;;;;;22.50;23.60;;;;;;486695;244;1218;-69
2021/01/19 03:30:32;;;;;;;;;;;22.50;23.60;;;;;;486653;244;2198;-68
2021/01/19 03:32:33;;;;;;;;;;;22.40;23.60;;;;;;486696;244;1292;-69
2021/01/19 03:34:35;;;;;;;;;;;22.40;23.60;;;;;;486708;244;1157;-68
2021/01/19 03:36:36;;;;;;;;;;;22.50;23.70;;;;;;486664;244;1273;-69
2021/01/19 03:38:37;;;;;;;;;;;22.40;23.60;;;;;;486723;244;1249;-69
2021/01/19 03:40:39;;;;;;;;;;;22.40;23.60;;;;;;486653;244;1303;-69
2021/01/19 03:42:40;;;;;;;;;;;22.40;23.60;;;;;;486721;244;1171;-68
2021/01/19 03:44:41;;;;;;;;;;;22.40;23.60;;;;;;486691;244;1231;-69
2021/01/19 03:46:42;;;;;;;;;;;22.50;23.60;;;;;;486680;244;1241;-68
2021/01/19 03:48:44;;;;;;;;;;;22.40;23.60;;;;;;486750;244;1226;-69
2021/01/19 03:50:45;;;;;;;;;;;22.40;23.60;;;;;;486686;244;2151;-69
2021/01/19 03:52:46;;;;;;;;;;;22.50;23.60;;;;;;486720;244;1183;-68
2021/01/19 03:54:47;;;;;;;;;;;22.40;23.50;;;;;;486691;244;1085;-68
2021/01/19 03:56:49;;;;;;;;;;;22.50;23.60;;;;;;486632;244;1198;-68
2021/01/19 03:58:50;;;;;;;;;;;22.50;23.60;;;;;;486688;244;1228;-69
2021/01/19 04:00:51;;;;;;;;;;;22.50;23.60;;;;;;486701;244;1239;-69
2021/01/19 04:02:53;;;;;;;;;;;22.40;23.60;;;;;;486694;244;1115;-69
2021/01/19 04:04:54;;;;;;;;;;;22.40;23.50;;;;;;486713;244;1209;-68
2021/01/19 04:06:56;;;;;;;;;;;22.40;23.60;;;;;;486619;244;1225;-68
2021/01/19 04:08:57;;;;;;;;;;;22.40;23.60;;;;;;486677;244;1115;-69
2021/01/19 04:10:58;;;;;;;;;;;22.40;23.60;;;;;;486596;244;2123;-68
2021/01/19 04:12:59;;;;;;;;;;;22.40;23.60;;;;;;486635;244;1187;-69
2021/01/19 04:15:01;;;;;;;;;;;22.40;23.60;;;;;;486794;244;1272;-69
2021/01/19 04:17:02;;;;;;;;;;;22.40;23.60;;;;;;486660;244;1265;-69
2021/01/19 04:19:03;;;;;;;;;;;22.40;23.60;;;;;;486694;244;1298;-69
2021/01/19 04:21:04;;;;;;;;;;;22.40;23.60;;;;;;486659;244;1183;-69
2021/01/19 04:23:06;;;;;;;;;;;22.40;23.60;;;;;;486700;244;1241;-69
2021/01/19 04:25:07;;;;;;;;;;;22.40;23.60;;;;;;486674;244;1300;-68
2021/01/19 04:27:08;;;;;;;;;;;22.40;23.60;;;;;;486636;244;1346;-68
2021/01/19 04:29:10;;;;;;;;;;;22.30;23.50;;;;;;486661;244;1238;-69
2021/01/19 04:31:11;;;;;;;;;;;22.40;23.60;;;;;;486679;244;2139;-69
2021/01/19 04:33:12;;;;;;;;;;;22.40;23.60;;;;;;486699;244;1159;-69
2021/01/19 04:35:13;;;;;;;;;;;22.30;23.50;;;;;;486738;244;1100;-69
2021/01/19 04:37:15;;;;;;;;;;;22.30;23.50;;;;;;486621;244;1331;-69
2021/01/19 04:39:16;;;;;;;;;;;22.40;23.60;;;;;;486738;244;1251;-68
2021/01/19 04:41:17;;;;;;;;;;;22.40;23.50;;;;;;486710;244;1272;-69
2021/01/19 04:43:19;;;;;;;;;;;22.30;23.50;;;;;;486719;244;1258;-69
2021/01/19 04:45:20;;;;;;;;;;;22.30;23.50;;;;;;486783;244;1317;-68
2021/01/19 04:47:21;;;;;;;;;;;22.30;23.50;;;;;;486641;244;1399;-68
2021/01/19 04:49:22;;;;;;;;;;;22.30;23.50;;;;;;486705;244;1306;-69
2021/01/19 04:51:25;;;;;;;;;;;22.30;23.50;;;;;;486647;244;2155;-69
2021/01/19 04:53:25;;;;;;;;;;;22.30;23.50;;;;;;486589;244;1466;-69
2021/01/19 04:55:26;;;;;;;;;;;22.30;23.50;;;;;;486707;244;1152;-68
2021/01/19 04:57:28;;;;;;;;;;;22.30;23.50;;;;;;486566;244;1258;-68
2021/01/19 04:59:29;;;;;;;;;;;22.30;23.50;;;;;;486715;244;1144;-69
2021/01/19 05:01:30;;;;;;;;;;;22.30;23.50;;;;;;486762;244;1310;-68
2021/01/19 05:03:31;;;;;;;;;;;22.30;23.50;;;;;;486763;244;1139;-68
2021/01/19 05:05:33;;;;;;;;;;;22.30;23.50;;;;;;486640;244;1212;-69
2021/01/19 05:07:34;;;;;;;;;;;22.30;23.50;;;;;;486602;244;1315;-68
2021/01/19 05:09:35;;;;;;;;;;;22.30;23.50;;;;;;486643;244;1267;-68
2021/01/19 05:11:37;;;;;;;;;;;22.20;23.50;;;;;;486670;244;2143;-68
2021/01/19 05:13:38;;;;;;;;;;;22.20;23.50;;;;;;486660;244;1238;-68
2021/01/19 05:15:40;;;;;;;;;;;22.20;23.50;;;;;;486643;244;1183;-69
2021/01/19 05:17:41;;;;;;;;;;;22.30;23.50;;;;;;486650;244;1272;-69
2021/01/19 05:19:42;;;;;;;;;;;22.20;23.50;;;;;;486727;244;1251;-69
2021/01/19 05:21:43;;;;;;;;;;;22.20;23.50;;;;;;486682;244;1263;-69
2021/01/19 05:23:45;;;;;;;;;;;22.20;23.50;;;;;;486663;244;1203;-68
2021/01/19 05:25:46;;;;;;;;;;;22.20;23.50;;;;;;486633;244;1227;-68
2021/01/19 05:27:47;;;;;;;;;;;22.20;23.50;;;;;;486495;244;1311;-68
2021/01/19 05:29:49;;;;;;;;;;;22.20;23.50;;;;;;486569;244;1231;-68
2021/01/19 05:31:50;;;;;;;;;;;22.20;23.50;;;;;;486563;244;2131;-69
2021/01/19 05:33:51;;;;;;;;;;;22.20;23.50;;;;;;486578;244;1286;-69
2021/01/19 05:35:53;;;;;;;;;;;22.20;23.50;;;;;;486563;244;1207;-69
2021/01/19 05:37:54;;;;;;;;;;;22.20;23.50;;;;;;486481;244;1314;-68
2021/01/19 05:39:55;;;;;;;;;;;22.20;23.50;;;;;;486477;244;1175;-68
2021/01/19 05:41:56;;;;;;;;;;;22.10;23.50;;;;;;486636;244;1266;-68
2021/01/19 05:43:58;;;;;;;;;;;22.20;23.50;;;;;;486571;244;1173;-68
2021/01/19 05:45:59;;;;;;;;;;;22.20;23.50;;;;;;486575;244;1380;-69
2021/01/19 05:48:00;;;;;;;;;;;22.10;23.50;;;;;;486535;244;1133;-69
2021/01/19 05:50:01;;;;;;;;;;;22.10;23.50;;;;;;486517;244;1235;-68
2021/01/19 05:52:03;;;;;;;;;;;22.10;23.50;;;;;;486403;244;2135;-68
2021/01/19 05:54:04;;;;;;;;;;;22.10;23.50;;;;;;486491;244;1129;-68
2021/01/19 05:56:05;;;;;;;;;;;22.10;23.50;;;;;;486545;244;1264;-69
2021/01/19 05:58:07;;;;;;;;;;;22.10;23.50;;;;;;486537;244;1279;-68
2021/01/19 06:00:08;;;;;;;;;;;22.10;23.50;;;;;;486490;244;1169;-68
2021/01/19 06:02:09;;;;;;;;;;;22.10;23.50;;;;;;486495;244;1227;-68
2021/01/19 06:04:10;;;;;;;;;;;22.10;23.50;;;;;;486560;244;1165;-69
2021/01/19 06:06:12;;;;;;;;;;;22.10;23.50;;;;;;486464;244;1237;-69
2021/01/19 06:08:13;;;;;;;;;;;22.10;23.50;;;;;;486488;244;1170;-68
2021/01/19 06:10:14;;;;;;;;;;;22.10;23.50;;;;;;486548;244;1237;-68
2021/01/19 06:12:15;;;;;;;;;;;22.00;23.50;;;;;;486561;244;2187;-68
2021/01/19 06:14:17;;;;;;;;;;;22.10;23.50;;;;;;486489;244;1121;-68
2021/01/19 06:16:18;;;;;;;;;;;22.00;23.50;;;;;;486525;244;1244;-69
2021/01/19 06:18:19;;;;;;;;;;;22.10;23.50;;;;;;486547;244;1150;-69
2021/01/19 06:20:21;;;;;;;;;;;22.00;23.50;;;;;;486493;244;1124;-69
2021/01/19 06:22:23;;;;;;;;;;;22.10;23.50;;;;;;486335;244;1245;-69
2021/01/19 06:24:23;;;;;;;;;;;22.00;23.50;;;;;;486300;244;1440;-68
2021/01/19 06:26:24;;;;;;;;;;;22.10;23.50;;;;;;486300;244;1362;-68
2021/01/19 06:28:26;;;;;;;;;;;22.00;23.50;;;;;;486370;244;1123;-69
2021/01/19 06:30:27;;;;;;;;;;;22.00;23.40;;;;;;486439;244;1143;-69
2021/01/19 06:32:29;;;;;;;;;;;22.00;23.40;;;;;;486395;244;2135;-69
2021/01/19 06:34:30;;;;;;;;;;;22.00;23.40;;;;;;486433;244;1307;-69
2021/01/19 06:36:31;;;;;;;;;;;22.00;23.40;;;;;;486377;244;1301;-69
2021/01/19 06:38:33;;;;;;;;;;;22.10;23.30;;;;;;486416;244;1169;-69
2021/01/19 06:40:34;;;;;;;;;;;22.10;23.40;;;;;;486474;244;1141;-69
2021/01/19 06:42:35;;;;;;;;;;;22.10;23.40;;;;;;486273;244;1502;-68
2021/01/19 06:44:37;;;;;;;;;;;22.00;23.40;;;;;;486348;244;1280;-69
2021/01/19 06:46:38;;;;;;;;;;;22.00;23.40;;;;;;486448;244;1233;-68
2021/01/19 06:48:39;;;;;;;;;;;22.00;23.40;;;;;;486390;244;1302;-68
2021/01/19 06:50:41;;;;;;;;;;;22.00;23.40;;;;;;486439;244;1187;-68
2021/01/19 06:52:42;;;;;;;;;;;22.00;23.30;;;;;;486285;244;2125;-68
2021/01/19 06:54:43;;;;;;;;;;;22.00;23.30;;;;;;486433;244;1294;-69
2021/01/19 06:56:44;;;;;;;;;;;22.00;23.30;;;;;;486408;244;964;-69
2021/01/19 06:58:46;;;;;;;;;;;22.00;23.40;;;;;;486411;244;1277;-69
2021/01/19 07:00:47;;;;;;;;;;;22.00;23.40;;;;;;486382;244;978;-69
2021/01/19 07:02:48;;;;;;;;;;;22.00;23.40;;;;;;486389;244;956;-69
2021/01/19 07:04:49;;;;;;;;;;;22.00;23.40;;;;;;486292;244;1031;-69
2021/01/19 07:06:51;;;;;;;;;;;22.00;23.40;;;;;;486265;244;1042;-68
2021/01/19 07:08:52;;;;;;;;;;;22.00;23.40;;;;;;486390;244;1051;-68
2021/01/19 07:10:55;;;;;;;;;;;22.00;23.30;;;;;;486332;244;985;-69
2021/01/19 07:12:56;;;;;;;;;;;22.00;23.30;;;;;;486409;244;2174;-69
2021/01/19 07:14:57;;;;;;;;;;;22.00;23.40;;;;;;486351;244;1178;-69
2021/01/19 07:16:59;;;;;;;;;;;22.00;23.30;;;;;;486388;244;1029;-69
2021/01/19 07:19:00;;;;;;;;;;;22.00;23.30;;;;;;486311;244;1010;-69
2021/01/19 07:21:02;;;;;;;;;;;22.00;23.30;;;;;;486272;244;1039;-68
2021/01/19 07:23:03;;;;;;;;;;;22.00;23.30;;;;;;486309;244;1029;-68
2021/01/19 07:25:04;;;;;;;;;;;22.00;23.30;;;;;;486304;244;996;-68
2021/01/19 07:27:06;;;;;;;;;;;22.00;23.30;;;;;;486359;244;969;-68
2021/01/19 07:29:08;;;;;;;;;;;22.00;23.30;;;;;;486320;244;1338;-69
2021/01/19 07:31:09;;;;;;;;;;;22.00;23.30;;;;;;486246;244;1083;-69
2021/01/19 07:33:12;;;;;;;;;;;22.00;23.30;;;;;;486107;244;2223;-69
2021/01/19 07:35:13;;;;;;;;;;;22.00;23.20;;;;;;486169;244;1225;-68
2021/01/19 07:37:14;;;;;;;;;;;22.00;23.30;;;;;;486174;244;1047;-68
2021/01/19 07:39:16;;;;;;;;;;;22.00;23.30;;;;;;486110;244;1109;-69
2021/01/19 07:41:17;;;;;;;;;;;22.00;23.20;;;;;;486056;243;1208;-69
2021/01/19 07:43:18;;;;;;;;;;;22.00;23.20;;;;;;486116;244;1068;-68
2021/01/19 07:45:19;;;;;;;;;;;22.00;23.20;;;;;;486187;244;1191;-68
2021/01/19 07:47:21;;;;;;;;;;;22.00;23.50;;;;;;486337;244;1134;-68
2021/01/19 07:49:22;;;;;;;;;;;22.00;24.50;;;;;;486301;244;1040;-69
2021/01/19 07:51:23;;;;;;;;;;;22.00;25.50;;;;;;486230;244;1050;-69
2021/01/19 07:53:24;;;;;;;;;;;22.00;25.40;;;;;;485944;244;1019;-68
2021/01/19 07:55:26;;;;;;;;;;;22.00;25.40;;;;;;485979;244;1096;-69
2021/01/19 07:57:27;;;;;;;;;;;22.00;26.40;;;;;;486071;244;1040;-68
2021/01/19 07:59:28;;;;;;;;;;;22.00;27.40;;;;;;486203;244;1096;-70
2021/01/19 08:01:30;;;;;;;;;;;22.10;28.30;;;;;;486263;244;1019;-70
2021/01/19 08:03:31;;;;;;;;;;;22.00;29.10;;;;;;486199;244;1009;-70
2021/01/19 08:05:33;;;;;;;;;;;22.10;29.80;;;;;;486197;244;1124;-69
2021/01/19 08:07:34;;;;;;;;;;;22.10;30.00;;;;;;486223;244;1177;-69
2021/01/19 08:09:36;;;;;;;;;;;22.10;31.00;;;;;;485988;244;1217;-69
2021/01/19 08:11:37;;;;;;;;;;;22.10;32.10;;;;;;486149;244;2187;-68
2021/01/19 08:13:39;;;;;;;;;;;22.10;32.90;;;;;;485983;244;1032;-70
2021/01/19 08:15:40;;;;;;;;;;;22.10;33.90;;;;;;486038;244;1166;-69
2021/01/19 08:17:41;;;;;;;;;;;22.10;34.00;;;;;;485744;244;1418;-69
2021/01/19 08:19:42;;;;;;;;;;;22.10;34.00;;;;;;485522;244;1342;-69
2021/01/19 08:21:44;;;;;;;;;;;22.10;34.20;;;;;;486087;244;1121;-69
2021/01/19 08:23:45;;;;;;;;;;;22.10;34.00;;;;;;485979;244;1065;-70
2021/01/19 08:25:47;;;;;;;;;;;22.10;33.80;;;;;;485968;244;1130;-70
2021/01/19 08:27:48;;;;;;;;;;;22.10;33.50;;;;;;485841;244;1409;-69
2021/01/19 08:29:49;;;;;;;;;;;22.10;33.30;;;;;;485889;244;1312;-70
2021/01/19 08:31:50;;;;;;;;;;;22.10;33.10;;;;;;486025;244;2167;-70
2021/01/19 08:33:51;;;;;;;;;;;22.10;32.80;;;;;;485911;244;1028;-68
2021/01/19 08:35:53;;;;;;;;;;;22.10;32.60;;;;;;485905;244;1164;-68
2021/01/19 08:37:54;;;;;;;;;;;22.20;32.40;;;;;;485978;244;1026;-68
2021/01/19 08:39:55;;;;;;;;;;;22.10;32.20;;;;;;485894;244;1106;-68
2021/01/19 08:41:56;;;;;;;;;;;22.10;32.00;;;;;;486047;244;1077;-70
2021/01/19 08:43:58;;;;;;;;;;;22.10;31.80;;;;;;485960;244;1142;-68
2021/01/19 08:46:00;;;;;;;;;;;22.10;31.50;;;;;;485800;244;1299;-68
2021/01/19 08:48:00;;;;;;;;;;;22.10;31.20;;;;;;485744;244;1395;-68
2021/01/19 08:50:01;;;;;;;;;;;22.10;31.30;;;;;;485888;244;1027;-68
2021/01/19 08:52:03;;;;;;;;;;;22.10;31.20;;;;;;485903;244;2183;-68
2021/01/19 08:54:04;;;;;;;;;;;22.10;31.00;;;;;;485943;244;1020;-69
2021/01/19 08:56:06;;;;;;;;;;;22.10;30.90;;;;;;486006;244;1109;-68
2021/01/19 08:58:07;;;;;;;;;;;22.10;30.80;;;;;;485972;244;1085;-68
2021/01/19 09:00:08;;;;;;;;;;;22.10;30.70;;;;;;486025;244;1289;-68
2021/01/19 09:02:09;;;;;;;;;;;22.10;30.60;;;;;;485833;244;1246;-68
2021/01/19 09:04:11;;;;;;;;;;;22.10;30.50;;;;;;485602;244;1049;-68
2021/01/19 09:06:12;;;;;;;;;;;22.10;30.50;;;;;;486082;244;1165;-68
2021/01/19 09:08:13;;;;;;;;;;;22.10;30.40;;;;;;485993;244;1058;-68
2021/01/19 09:10:15;;;;;;;;;;;22.10;30.40;;;;;;485628;244;976;-68
2021/01/19 09:12:16;;;;;;;;;;;22.10;30.30;;;;;;485988;244;2142;-68
2021/01/19 09:14:23;;;;;;;;;;;22.10;30.30;;;;;;485794;244;1063;-69
2021/01/19 09:16:19;;;;;;;;;;;22.10;30.30;;;;;;485539;245;1272;-68
2021/01/19 09:18:21;;;;;;;;;;;22.10;30.30;;;;;;485766;244;1042;-68
2021/01/19 09:20:22;;;;;;;;;;;22.10;30.30;;;;;;485714;244;1326;-68
2021/01/19 09:22:23;;;;;;;;;;;22.10;30.30;;;;;;485739;244;1210;-67
2021/01/19 09:24:25;;;;;;;;;;;22.10;30.10;;;;;;485889;244;968;-70
2021/01/19 09:26:25;;;;;;;;;;;22.10;30.20;;;;;;485970;245;1348;-71
2021/01/19 09:28:26;;;;;;;;;;;22.10;30.30;;;;;;486128;244;1052;-70
2021/01/19 09:30:34;;;;;;;;;;;22.10;30.40;;;;;;485985;244;1102;-68
2021/01/19 09:32:29;;;;;;;;;;;22.20;30.40;;;;;;485366;245;2202;-68
2021/01/19 09:34:31;;;;;;;;;;;22.20;30.40;;;;;;485914;244;1117;-68
2021/01/19 09:36:32;;;;;;;;;;;22.20;30.40;;;;;;485639;244;1194;-68
2021/01/19 09:38:33;;;;;;;;;;;22.20;30.40;;;;;;485657;244;1031;-67
2021/01/19 09:40:34;;;;;;;;;;;22.20;30.40;;;;;;485743;244;1324;-68
2021/01/19 09:42:36;;;;;;;;;;;22.20;30.50;;;;;;485852;244;1099;-68
2021/01/19 09:44:37;;;;;;;;;;;22.20;30.40;;;;;;485972;244;1105;-68
2021/01/19 09:46:38;;;;;;;;;;;22.20;30.50;;;;;;485878;244;1129;-68
2021/01/19 09:48:40;;;;;;;;;;;22.10;30.50;;;;;;485875;244;1039;-69
2021/01/19 09:50:41;;;;;;;;;;;22.10;30.60;;;;;;485704;244;1135;-68
2021/01/19 09:52:42;;;;;;;;;;;22.10;30.70;;;;;;485849;244;2183;-69
2021/01/19 09:54:43;;;;;;;;;;;22.10;30.60;;;;;;485555;244;1055;-68
2021/01/19 09:56:45;;;;;;;;;;;22.20;30.50;;;;;;485803;244;1050;-68
2021/01/19 09:58:46;;;;;;;;;;;22.10;30.70;;;;;;485739;244;1232;-68
2021/01/19 10:00:48;;;;;;;;;;;22.10;30.90;;;;;;485827;244;1053;-68
2021/01/19 10:02:49;;;;;;;;;;;22.10;30.90;;;;;;485683;244;1216;-68
2021/01/19 10:04:50;;;;;;;;;;;22.10;31.00;;;;;;485829;244;1184;-69
2021/01/19 10:06:51;;;;;;;;;;;22.10;31.00;;;;;;485871;244;1157;-68
2021/01/19 10:08:53;;;;;;;;;;;22.20;31.00;;;;;;485841;244;1068;-71
2021/01/19 10:10:54;;;;;;;;;;;22.20;31.00;;;;;;485789;244;1003;-71
2021/01/19 10:12:55;;;;;;;;;;;22.20;31.00;;;;;;485852;244;2187;-71
2021/01/19 10:14:56;;;;;;;;;;;22.20;31.00;;;;;;485827;244;1039;-71
2021/01/19 10:16:58;;;;;;;;;;;22.20;31.00;;;;;;485780;244;1168;-71
2021/01/19 10:18:59;;;;;;;;;;;22.20;31.00;;;;;;485897;244;1069;-71
2021/01/19 10:21:00;;;;;;;;;;;22.20;31.10;;;;;;485899;244;1063;-71
2021/01/19 10:23:02;;;;;;;;;;;22.20;31.10;;;;;;485934;244;1055;-71
2021/01/19 10:25:06;;;;;;;;;;;22.30;31.10;;;;;;485923;244;1031;-71
2021/01/19 10:27:04;;;;;;;;;;;22.30;31.00;;;;;;485659;245;1960;-66
2021/01/19 10:29:06;;;;;;;;;;;22.30;31.10;;;;;;485463;244;1039;-71
2021/01/19 10:31:07;;;;;;;;;;;22.30;31.10;;;;;;485829;245;1130;-70
2021/01/19 10:33:08;;;;;;;;;;;22.30;31.10;;;;;;486018;244;2154;-71
2021/01/19 10:35:10;;;;;;;;;;;22.30;31.10;;;;;;486071;244;1039;-71
2021/01/19 10:37:11;;;;;;;;;;;22.30;31.10;;;;;;486090;244;1103;-71
2021/01/19 10:39:12;;;;;;;;;;;22.30;31.10;;;;;;486008;244;1030;-71
2021/01/19 10:41:13;;;;;;;;;;;22.40;31.10;;;;;;486031;244;1013;-71
2021/01/19 10:43:15;;;;;;;;;;;22.30;31.00;;;;;;485821;244;1056;-71
2021/01/19 10:45:16;;;;;;;;;;;22.40;31.10;;;;;;485883;244;1033;-71
2021/01/19 10:47:17;;;;;;;;;;;22.40;31.10;;;;;;485938;244;1068;-71
2021/01/19 10:49:19;;;;;;;;;;;22.40;31.00;;;;;;486021;244;1084;-71
2021/01/19 10:51:21;;;;;;;;;;;22.40;30.90;;;;;;485914;244;1038;-71
2021/01/19 10:53:21;;;;;;;;;;;22.40;30.80;;;;;;485909;245;2131;-71
2021/01/19 10:55:22;;;;;;;;;;;22.50;30.90;;;;;;485722;244;999;-71
2021/01/19 10:57:24;;;;;;;;;;;22.50;30.80;;;;;;485972;244;1179;-71
2021/01/19 10:59:25;;;;;;;;;;;22.50;30.60;;;;;;485717;244;1021;-71
2021/01/19 11:01:26;;;;;;;;;;;22.50;30.80;;;;;;486003;244;1137;-71
2021/01/19 11:03:28;;;;;;;;;;;22.50;30.80;;;;;;485800;244;1195;-71
2021/01/19 11:05:29;;;;;;;;;;;22.50;30.80;;;;;;485962;244;1007;-71
2021/01/19 11:07:30;;;;;;;;;;;22.50;30.80;;;;;;486172;244;1213;-71
2021/01/19 11:09:33;;;;;;;;;;;22.50;30.80;;;;;;484662;244;1065;-71
2021/01/19 11:11:33;;;;;;;;;;;22.50;30.80;;;;;;485671;245;1303;-71
2021/01/19 11:13:34;;;;;;;;;;;22.50;30.80;;;;;;486015;244;2182;-71
2021/01/19 11:15:36;;;;;;;;;;;22.50;30.70;;;;;;486022;244;1041;-71
2021/01/19 11:17:37;;;;;;;;;;;22.60;30.60;;;;;;486129;244;1271;-71
2021/01/19 11:19:38;;;;;;;;;;;22.60;30.70;;;;;;486158;244;1199;-71
2021/01/19 11:21:39;;;;;;;;;;;22.60;30.70;;;;;;486052;244;1319;-71
2021/01/19 11:23:41;;;;;;;;;;;22.60;30.60;;;;;;486030;244;1020;-71
2021/01/19 11:25:42;;;;;;;;;;;22.60;30.60;;;;;;486152;244;1159;-71
2021/01/19 11:27:43;;;;;;;;;;;22.60;30.50;;;;;;486071;244;1358;-71
2021/01/19 11:29:45;;;;;;;;;;;22.60;30.60;;;;;;486064;244;1137;-71
2021/01/19 11:31:46;;;;;;;;;;;22.60;30.60;;;;;;486154;244;1097;-69
2021/01/19 11:33:47;;;;;;;;;;;22.60;30.50;;;;;;485811;244;2151;-68
2021/01/19 11:35:48;;;;;;;;;;;22.60;30.30;;;;;;486089;244;1200;-69
2021/01/19 11:37:50;;;;;;;;;;;22.70;30.50;;;;;;486108;244;1242;-69
2021/01/19 11:39:51;;;;;;;;;;;22.70;30.60;;;;;;485993;244;1132;-69
2021/01/19 11:41:52;;;;;;;;;;;22.70;30.60;;;;;;486085;244;1220;-68
2021/01/19 11:43:54;;;;;;;;;;;22.70;30.60;;;;;;485812;244;1076;-69
2021/01/19 11:45:55;;;;;;;;;;;22.60;30.70;;;;;;485993;244;1131;-69
2021/01/19 11:47:56;;;;;;;;;;;22.60;30.80;;;;;;486003;244;1353;-69
2021/01/19 11:49:57;;;;;;;;;;;22.60;30.80;;;;;;486114;244;974;-69
2021/01/19 11:51:59;;;;;;;;;;;22.60;30.80;;;;;;486054;244;1047;-68
2021/01/19 11:54:00;;;;;;;;;;;22.60;30.80;;;;;;485876;244;2179;-68
2021/01/19 11:56:02;;;;;;;;;;;22.70;30.80;;;;;;485801;244;1072;-68